sensor_id;sensor_type;location;lat;lon;timestamp;temperature;humidity
30304;DHT22;17112;48.636;10.152;2024-03-02T00:00:08;9.90;74.90
30304;DHT22;17112;48.636;10.152;2024-03-02T00:02:43;9.90;74.90
30304;DHT22;17112;48.636;10.152;2024-03-02T00:05:18;9.90;75.00
30304;DHT22;17112;48.636;10.152;2024-03-02T00:07:59;10.00;75.10
30304;DHT22;17112;48.636;10.152;2024-03-02T00:10:27;10.00;75.20
30304;DHT22;17112;48.636;10.152;2024-03-02T00:12:57;9.90;74.50
30304;DHT22;17112;48.636;10.152;2024-03-02T00:18:03;9.90;74.40
30304;DHT22;17112;48.636;10.152;2024-03-02T00:20:30;9.80;74.00
30304;DHT22;17112;48.636;10.152;2024-03-02T00:23:07;9.80;74.30
30304;DHT22;17112;48.636;10.152;2024-03-02T00:25:43;9.80;74.80
30304;DHT22;17112;48.636;10.152;2024-03-02T00:31:06;9.70;75.10
30304;DHT22;17112;48.636;10.152;2024-03-02T00:33:35;9.70;75.20
30304;DHT22;17112;48.636;10.152;2024-03-02T00:36:05;9.70;74.50
30304;DHT22;17112;48.636;10.152;2024-03-02T00:38:32;9.70;74.80
30304;DHT22;17112;48.636;10.152;2024-03-02T00:41:00;9.70;74.80
30304;DHT22;17112;48.636;10.152;2024-03-02T00:46:22;9.70;75.50
30304;DHT22;17112;48.636;10.152;2024-03-02T00:48:59;9.70;75.10
30304;DHT22;17112;48.636;10.152;2024-03-02T00:51:29;9.70;75.20
30304;DHT22;17112;48.636;10.152;2024-03-02T00:53:57;9.70;75.20
30304;DHT22;17112;48.636;10.152;2024-03-02T00:56:24;9.70;75.30
30304;DHT22;17112;48.636;10.152;2024-03-02T00:58:50;9.70;75.30
30304;DHT22;17112;48.636;10.152;2024-03-02T01:01:16;9.70;75.20
30304;DHT22;17112;48.636;10.152;2024-03-02T01:03:42;9.70;75.10
30304;DHT22;17112;48.636;10.152;2024-03-02T01:06:08;9.70;75.10
30304;DHT22;17112;48.636;10.152;2024-03-02T01:08:38;9.70;75.20
30304;DHT22;17112;48.636;10.152;2024-03-02T01:11:04;9.70;75.30
30304;DHT22;17112;48.636;10.152;2024-03-02T01:13:30;9.80;75.20
30304;DHT22;17112;48.636;10.152;2024-03-02T01:15:56;9.80;75.20
30304;DHT22;17112;48.636;10.152;2024-03-02T01:18:23;9.80;75.00
30304;DHT22;17112;48.636;10.152;2024-03-02T01:20:49;9.80;74.90
30304;DHT22;17112;48.636;10.152;2024-03-02T01:23:18;9.80;74.90
30304;DHT22;17112;48.636;10.152;2024-03-02T01:25:45;9.80;74.90
30304;DHT22;17112;48.636;10.152;2024-03-02T01:28:11;9.80;74.90
30304;DHT22;17112;48.636;10.152;2024-03-02T01:30:37;9.80;75.00
30304;DHT22;17112;48.636;10.152;2024-03-02T01:33:02;9.80;75.00
30304;DHT22;17112;48.636;10.152;2024-03-02T01:35:31;9.70;74.90
30304;DHT22;17112;48.636;10.152;2024-03-02T01:37:57;9.70;74.90
30304;DHT22;17112;48.636;10.152;2024-03-02T01:40:22;9.80;75.00
30304;DHT22;17112;48.636;10.152;2024-03-02T01:42:52;9.70;75.00
30304;DHT22;17112;48.636;10.152;2024-03-02T01:45:18;9.70;74.90
30304;DHT22;17112;48.636;10.152;2024-03-02T01:47:44;9.80;75.00
30304;DHT22;17112;48.636;10.152;2024-03-02T01:50:11;9.70;74.90
30304;DHT22;17112;48.636;10.152;2024-03-02T01:52:37;9.70;74.90
30304;DHT22;17112;48.636;10.152;2024-03-02T01:55:03;9.70;74.90
30304;DHT22;17112;48.636;10.152;2024-03-02T01:57:29;9.70;74.90
30304;DHT22;17112;48.636;10.152;2024-03-02T01:59:55;9.70;74.90
30304;DHT22;17112;48.636;10.152;2024-03-02T02:02:21;9.70;74.70
30304;DHT22;17112;48.636;10.152;2024-03-02T02:04:47;9.70;74.70
30304;DHT22;17112;48.636;10.152;2024-03-02T02:07:13;9.70;74.80
30304;DHT22;17112;48.636;10.152;2024-03-02T02:09:41;9.70;75.00
30304;DHT22;17112;48.636;10.152;2024-03-02T02:12:07;9.70;75.00
30304;DHT22;17112;48.636;10.152;2024-03-02T02:14:33;9.70;75.00
30304;DHT22;17112;48.636;10.152;2024-03-02T02:16:59;9.70;75.10
30304;DHT22;17112;48.636;10.152;2024-03-02T02:19:25;9.70;75.00
30304;DHT22;17112;48.636;10.152;2024-03-02T02:21:51;9.70;75.00
30304;DHT22;17112;48.636;10.152;2024-03-02T02:24:16;9.70;75.10
30304;DHT22;17112;48.636;10.152;2024-03-02T02:26:42;9.70;75.10
30304;DHT22;17112;48.636;10.152;2024-03-02T02:29:08;9.70;75.00
30304;DHT22;17112;48.636;10.152;2024-03-02T02:31:40;9.70;75.00
30304;DHT22;17112;48.636;10.152;2024-03-02T02:34:06;9.70;75.10
30304;DHT22;17112;48.636;10.152;2024-03-02T02:36:33;9.70;74.90
30304;DHT22;17112;48.636;10.152;2024-03-02T02:39:01;9.70;74.90
30304;DHT22;17112;48.636;10.152;2024-03-02T02:41:29;9.70;74.90
30304;DHT22;17112;48.636;10.152;2024-03-02T02:43:55;9.70;74.80
30304;DHT22;17112;48.636;10.152;2024-03-02T02:46:20;9.70;74.80
30304;DHT22;17112;48.636;10.152;2024-03-02T02:48:46;9.70;74.80
30304;DHT22;17112;48.636;10.152;2024-03-02T02:51:12;9.70;74.80
30304;DHT22;17112;48.636;10.152;2024-03-02T02:53:37;9.70;74.90
30304;DHT22;17112;48.636;10.152;2024-03-02T02:56:06;9.70;75.50
30304;DHT22;17112;48.636;10.152;2024-03-02T02:58:32;9.70;74.90
30304;DHT22;17112;48.636;10.152;2024-03-02T03:00:58;9.70;75.00
30304;DHT22;17112;48.636;10.152;2024-03-02T03:03:23;9.70;75.00
30304;DHT22;17112;48.636;10.152;2024-03-02T03:05:49;9.70;75.10
30304;DHT22;17112;48.636;10.152;2024-03-02T03:08:15;9.70;75.10
30304;DHT22;17112;48.636;10.152;2024-03-02T03:10:41;9.70;75.10
30304;DHT22;17112;48.636;10.152;2024-03-02T03:13:07;9.70;75.10
30304;DHT22;17112;48.636;10.152;2024-03-02T03:15:35;9.70;75.00
30304;DHT22;17112;48.636;10.152;2024-03-02T03:18:02;9.70;75.00
30304;DHT22;17112;48.636;10.152;2024-03-02T03:20:29;9.70;74.90
30304;DHT22;17112;48.636;10.152;2024-03-02T03:22:55;9.70;74.90
30304;DHT22;17112;48.636;10.152;2024-03-02T03:25:21;9.70;74.90
30304;DHT22;17112;48.636;10.152;2024-03-02T03:27:46;9.70;74.90
30304;DHT22;17112;48.636;10.152;2024-03-02T03:30:12;9.60;74.80
30304;DHT22;17112;48.636;10.152;2024-03-02T03:32:38;9.60;74.90
30304;DHT22;17112;48.636;10.152;2024-03-02T03:35:04;9.60;74.90
30304;DHT22;17112;48.636;10.152;2024-03-02T03:37:31;9.60;74.90
30304;DHT22;17112;48.636;10.152;2024-03-02T03:39:59;9.60;74.80
30304;DHT22;17112;48.636;10.152;2024-03-02T03:42:25;9.60;74.80
30304;DHT22;17112;48.636;10.152;2024-03-02T03:44:51;9.60;74.80
30304;DHT22;17112;48.636;10.152;2024-03-02T03:47:17;9.60;74.80
30304;DHT22;17112;48.636;10.152;2024-03-02T03:49:42;9.50;74.70
30304;DHT22;17112;48.636;10.152;2024-03-02T03:52:08;9.50;74.70
30304;DHT22;17112;48.636;10.152;2024-03-02T03:54:34;9.50;74.60
30304;DHT22;17112;48.636;10.152;2024-03-02T03:56:59;9.50;74.60
30304;DHT22;17112;48.636;10.152;2024-03-02T03:59:25;9.40;74.50
30304;DHT22;17112;48.636;10.152;2024-03-02T04:01:51;9.40;74.70
30304;DHT22;17112;48.636;10.152;2024-03-02T04:04:16;9.40;74.80
30304;DHT22;17112;48.636;10.152;2024-03-02T04:06:42;9.40;75.00
30304;DHT22;17112;48.636;10.152;2024-03-02T04:09:08;9.30;75.10
30304;DHT22;17112;48.636;10.152;2024-03-02T04:11:33;9.30;75.10
30304;DHT22;17112;48.636;10.152;2024-03-02T04:13:59;9.30;75.00
30304;DHT22;17112;48.636;10.152;2024-03-02T04:16:25;9.30;75.00
30304;DHT22;17112;48.636;10.152;2024-03-02T04:18:50;9.30;75.10
30304;DHT22;17112;48.636;10.152;2024-03-02T04:21:16;9.30;74.90
30304;DHT22;17112;48.636;10.152;2024-03-02T04:23:42;9.30;75.00
30304;DHT22;17112;48.636;10.152;2024-03-02T04:26:07;9.20;75.00
30304;DHT22;17112;48.636;10.152;2024-03-02T04:28:33;9.20;74.80
30304;DHT22;17112;48.636;10.152;2024-03-02T04:30:59;9.20;74.90
30304;DHT22;17112;48.636;10.152;2024-03-02T04:33:24;9.20;75.00
30304;DHT22;17112;48.636;10.152;2024-03-02T04:35:50;9.10;75.10
30304;DHT22;17112;48.636;10.152;2024-03-02T04:38:16;9.10;75.20
30304;DHT22;17112;48.636;10.152;2024-03-02T04:40:42;9.10;75.90
30304;DHT22;17112;48.636;10.152;2024-03-02T04:43:08;9.10;74.80
30304;DHT22;17112;48.636;10.152;2024-03-02T04:45:37;9.00;74.80
30304;DHT22;17112;48.636;10.152;2024-03-02T04:48:04;9.00;75.00
30304;DHT22;17112;48.636;10.152;2024-03-02T04:50:30;8.90;75.30
30304;DHT22;17112;48.636;10.152;2024-03-02T04:52:56;8.90;75.50
30304;DHT22;17112;48.636;10.152;2024-03-02T04:55:21;8.90;75.50
30304;DHT22;17112;48.636;10.152;2024-03-02T04:58:10;8.90;75.70
30304;DHT22;17112;48.636;10.152;2024-03-02T05:00:36;8.90;75.70
30304;DHT22;17112;48.636;10.152;2024-03-02T05:03:02;8.90;75.90
30304;DHT22;17112;48.636;10.152;2024-03-02T05:05:28;8.90;75.90
30304;DHT22;17112;48.636;10.152;2024-03-02T05:07:54;8.90;76.70
30304;DHT22;17112;48.636;10.152;2024-03-02T05:10:20;8.90;76.10
30304;DHT22;17112;48.636;10.152;2024-03-02T05:12:45;8.90;76.00
30304;DHT22;17112;48.636;10.152;2024-03-02T05:15:14;8.90;75.90
30304;DHT22;17112;48.636;10.152;2024-03-02T05:17:41;8.90;76.10
30304;DHT22;17112;48.636;10.152;2024-03-02T05:20:10;9.00;76.20
30304;DHT22;17112;48.636;10.152;2024-03-02T05:22:37;9.00;76.20
30304;DHT22;17112;48.636;10.152;2024-03-02T05:25:03;9.00;76.00
30304;DHT22;17112;48.636;10.152;2024-03-02T05:27:29;9.00;76.10
30304;DHT22;17112;48.636;10.152;2024-03-02T05:29:55;9.00;76.10
30304;DHT22;17112;48.636;10.152;2024-03-02T05:32:21;9.00;76.00
30304;DHT22;17112;48.636;10.152;2024-03-02T05:34:47;9.00;76.00
30304;DHT22;17112;48.636;10.152;2024-03-02T05:37:13;9.00;76.00
30304;DHT22;17112;48.636;10.152;2024-03-02T05:39:38;9.00;75.80
30304;DHT22;17112;48.636;10.152;2024-03-02T05:42:04;9.00;75.70
30304;DHT22;17112;48.636;10.152;2024-03-02T05:44:38;8.90;75.70
30304;DHT22;17112;48.636;10.152;2024-03-02T05:47:05;8.90;75.90
30304;DHT22;17112;48.636;10.152;2024-03-02T05:49:30;8.90;75.70
30304;DHT22;17112;48.636;10.152;2024-03-02T05:51:56;8.90;75.90
30304;DHT22;17112;48.636;10.152;2024-03-02T05:54:22;8.90;76.70
30304;DHT22;17112;48.636;10.152;2024-03-02T05:56:48;8.90;76.10
30304;DHT22;17112;48.636;10.152;2024-03-02T05:59:13;8.90;76.20
30304;DHT22;17112;48.636;10.152;2024-03-02T06:01:43;8.90;76.20
30304;DHT22;17112;48.636;10.152;2024-03-02T06:04:10;8.90;76.20
30304;DHT22;17112;48.636;10.152;2024-03-02T06:06:36;8.90;76.20
30304;DHT22;17112;48.636;10.152;2024-03-02T06:09:03;8.90;76.20
30304;DHT22;17112;48.636;10.152;2024-03-02T06:11:37;8.90;76.20
30304;DHT22;17112;48.636;10.152;2024-03-02T06:14:06;8.90;76.30
30304;DHT22;17112;48.636;10.152;2024-03-02T06:16:33;9.00;76.30
30304;DHT22;17112;48.636;10.152;2024-03-02T06:18:59;9.00;76.30
30304;DHT22;17112;48.636;10.152;2024-03-02T06:21:25;9.00;76.20
30304;DHT22;17112;48.636;10.152;2024-03-02T06:23:51;9.00;76.10
30304;DHT22;17112;48.636;10.152;2024-03-02T06:26:17;9.00;76.10
30304;DHT22;17112;48.636;10.152;2024-03-02T06:28:44;9.00;76.20
30304;DHT22;17112;48.636;10.152;2024-03-02T06:31:10;9.00;75.90
30304;DHT22;17112;48.636;10.152;2024-03-02T06:33:35;9.00;75.90
30304;DHT22;17112;48.636;10.152;2024-03-02T06:36:01;9.00;75.90
30304;DHT22;17112;48.636;10.152;2024-03-02T06:38:27;9.00;75.80
30304;DHT22;17112;48.636;10.152;2024-03-02T06:40:53;9.00;75.70
30304;DHT22;17112;48.636;10.152;2024-03-02T06:43:19;9.00;75.70
30304;DHT22;17112;48.636;10.152;2024-03-02T06:45:51;9.00;75.70
30304;DHT22;17112;48.636;10.152;2024-03-02T06:48:17;9.00;75.80
30304;DHT22;17112;48.636;10.152;2024-03-02T06:50:49;9.00;75.90
30304;DHT22;17112;48.636;10.152;2024-03-02T06:53:15;9.00;75.90
30304;DHT22;17112;48.636;10.152;2024-03-02T06:55:45;9.00;76.00
30304;DHT22;17112;48.636;10.152;2024-03-02T06:58:12;9.00;76.10
30304;DHT22;17112;48.636;10.152;2024-03-02T07:00:38;9.00;76.10
30304;DHT22;17112;48.636;10.152;2024-03-02T07:03:04;9.10;76.10
30304;DHT22;17112;48.636;10.152;2024-03-02T07:05:29;9.10;76.10
30304;DHT22;17112;48.636;10.152;2024-03-02T07:07:55;9.10;76.20
30304;DHT22;17112;48.636;10.152;2024-03-02T07:10:21;9.10;76.10
30304;DHT22;17112;48.636;10.152;2024-03-02T07:12:46;9.10;76.00
30304;DHT22;17112;48.636;10.152;2024-03-02T07:15:12;9.20;75.80
30304;DHT22;17112;48.636;10.152;2024-03-02T07:17:54;9.20;75.60
30304;DHT22;17112;48.636;10.152;2024-03-02T07:20:20;9.20;75.50
30304;DHT22;17112;48.636;10.152;2024-03-02T07:22:46;9.20;75.40
30304;DHT22;17112;48.636;10.152;2024-03-02T07:25:12;9.20;75.50
30304;DHT22;17112;48.636;10.152;2024-03-02T07:27:38;9.30;75.70
30304;DHT22;17112;48.636;10.152;2024-03-02T07:30:05;9.30;75.80
30304;DHT22;17112;48.636;10.152;2024-03-02T07:32:31;9.30;75.80
30304;DHT22;17112;48.636;10.152;2024-03-02T07:34:56;9.40;75.80
30304;DHT22;17112;48.636;10.152;2024-03-02T07:37:23;9.40;75.60
30304;DHT22;17112;48.636;10.152;2024-03-02T07:39:50;9.40;75.50
30304;DHT22;17112;48.636;10.152;2024-03-02T07:42:16;9.50;75.40
30304;DHT22;17112;48.636;10.152;2024-03-02T07:44:46;9.50;75.40
30304;DHT22;17112;48.636;10.152;2024-03-02T07:47:13;9.50;75.30
30304;DHT22;17112;48.636;10.152;2024-03-02T07:49:38;9.60;76.00
30304;DHT22;17112;48.636;10.152;2024-03-02T07:52:04;9.60;75.30
30304;DHT22;17112;48.636;10.152;2024-03-02T07:54:30;9.60;75.20
30304;DHT22;17112;48.636;10.152;2024-03-02T07:56:56;9.60;75.20
30304;DHT22;17112;48.636;10.152;2024-03-02T07:59:21;9.70;75.20
30304;DHT22;17112;48.636;10.152;2024-03-02T08:01:49;9.70;75.10
30304;DHT22;17112;48.636;10.152;2024-03-02T08:04:15;9.80;75.20
30304;DHT22;17112;48.636;10.152;2024-03-02T08:06:41;9.80;75.10
30304;DHT22;17112;48.636;10.152;2024-03-02T08:09:07;9.80;74.90
30304;DHT22;17112;48.636;10.152;2024-03-02T08:11:35;9.90;75.00
30304;DHT22;17112;48.636;10.152;2024-03-02T08:14:01;9.90;74.90
30304;DHT22;17112;48.636;10.152;2024-03-02T08:16:27;10.00;74.90
30304;DHT22;17112;48.636;10.152;2024-03-02T08:18:53;10.00;74.90
30304;DHT22;17112;48.636;10.152;2024-03-02T08:21:19;10.10;74.80
30304;DHT22;17112;48.636;10.152;2024-03-02T08:23:45;10.10;74.80
30304;DHT22;17112;48.636;10.152;2024-03-02T08:26:11;10.20;74.80
30304;DHT22;17112;48.636;10.152;2024-03-02T08:28:37;10.30;74.70
30304;DHT22;17112;48.636;10.152;2024-03-02T08:31:04;10.30;74.50
30304;DHT22;17112;48.636;10.152;2024-03-02T08:33:30;10.40;74.20
30304;DHT22;17112;48.636;10.152;2024-03-02T08:35:56;10.40;74.10
30304;DHT22;17112;48.636;10.152;2024-03-02T08:38:22;10.50;74.00
30304;DHT22;17112;48.636;10.152;2024-03-02T08:40:49;10.60;73.90
30304;DHT22;17112;48.636;10.152;2024-03-02T08:43:15;10.60;73.80
30304;DHT22;17112;48.636;10.152;2024-03-02T08:45:41;10.60;73.80
30304;DHT22;17112;48.636;10.152;2024-03-02T08:48:10;10.70;73.70
30304;DHT22;17112;48.636;10.152;2024-03-02T08:50:36;10.70;73.50
30304;DHT22;17112;48.636;10.152;2024-03-02T08:53:05;10.80;73.40
30304;DHT22;17112;48.636;10.152;2024-03-02T08:55:31;10.80;73.30
30304;DHT22;17112;48.636;10.152;2024-03-02T08:57:57;10.90;73.10
30304;DHT22;17112;48.636;10.152;2024-03-02T09:00:23;10.90;73.00
30304;DHT22;17112;48.636;10.152;2024-03-02T09:02:49;10.90;72.70
30304;DHT22;17112;48.636;10.152;2024-03-02T09:05:15;11.00;72.60
30304;DHT22;17112;48.636;10.152;2024-03-02T09:07:41;10.90;72.50
30304;DHT22;17112;48.636;10.152;2024-03-02T09:10:07;10.90;72.60
30304;DHT22;17112;48.636;10.152;2024-03-02T09:12:34;11.00;72.80
30304;DHT22;17112;48.636;10.152;2024-03-02T09:15:01;11.20;73.10
30304;DHT22;17112;48.636;10.152;2024-03-02T09:17:27;11.10;73.00
30304;DHT22;17112;48.636;10.152;2024-03-02T09:19:52;11.10;72.70
30304;DHT22;17112;48.636;10.152;2024-03-02T09:22:19;11.20;72.50
30304;DHT22;17112;48.636;10.152;2024-03-02T09:24:44;11.20;72.10
30304;DHT22;17112;48.636;10.152;2024-03-02T09:27:10;11.20;71.90
30304;DHT22;17112;48.636;10.152;2024-03-02T09:29:36;11.20;71.70
30304;DHT22;17112;48.636;10.152;2024-03-02T09:32:02;11.20;71.70
30304;DHT22;17112;48.636;10.152;2024-03-02T09:34:28;11.20;71.60
30304;DHT22;17112;48.636;10.152;2024-03-02T09:36:54;11.10;71.50
30304;DHT22;17112;48.636;10.152;2024-03-02T09:39:20;11.10;71.80
30304;DHT22;17112;48.636;10.152;2024-03-02T09:41:46;11.10;71.90
30304;DHT22;17112;48.636;10.152;2024-03-02T09:44:12;11.10;72.20
30304;DHT22;17112;48.636;10.152;2024-03-02T09:46:39;11.10;72.40
30304;DHT22;17112;48.636;10.152;2024-03-02T09:49:05;11.20;72.60
30304;DHT22;17112;48.636;10.152;2024-03-02T09:51:31;11.30;72.50
30304;DHT22;17112;48.636;10.152;2024-03-02T09:53:57;11.30;72.00
30304;DHT22;17112;48.636;10.152;2024-03-02T09:56:23;11.40;71.60
30304;DHT22;17112;48.636;10.152;2024-03-02T09:58:48;11.40;71.50
30304;DHT22;17112;48.636;10.152;2024-03-02T10:01:14;11.40;71.90
30304;DHT22;17112;48.636;10.152;2024-03-02T10:03:40;11.50;72.40
30304;DHT22;17112;48.636;10.152;2024-03-02T10:06:25;11.60;72.70
30304;DHT22;17112;48.636;10.152;2024-03-02T10:08:51;11.80;71.40
30304;DHT22;17112;48.636;10.152;2024-03-02T10:14:13;12.20;72.20
30304;DHT22;17112;48.636;10.152;2024-03-02T10:16:43;12.40;71.60
30304;DHT22;17112;48.636;10.152;2024-03-02T10:19:24;12.70;72.00
30304;DHT22;17112;48.636;10.152;2024-03-02T10:21:53;12.90;70.90
30304;DHT22;17112;48.636;10.152;2024-03-02T10:24:21;13.10;71.00
30304;DHT22;17112;48.636;10.152;2024-03-02T10:26:47;13.30;70.40
30304;DHT22;17112;48.636;10.152;2024-03-02T10:29:13;13.50;69.70
30304;DHT22;17112;48.636;10.152;2024-03-02T10:31:40;13.60;69.30
30304;DHT22;17112;48.636;10.152;2024-03-02T10:34:07;13.80;68.90
30304;DHT22;17112;48.636;10.152;2024-03-02T10:36:34;14.00;68.40
30304;DHT22;17112;48.636;10.152;2024-03-02T10:39:04;14.00;67.60
30304;DHT22;17112;48.636;10.152;2024-03-02T10:41:35;14.10;66.90
30304;DHT22;17112;48.636;10.152;2024-03-02T10:44:08;14.20;66.80
30304;DHT22;17112;48.636;10.152;2024-03-02T10:46:36;14.30;66.90
30304;DHT22;17112;48.636;10.152;2024-03-02T10:49:03;14.40;66.90
30304;DHT22;17112;48.636;10.152;2024-03-02T10:51:33;14.50;66.90
30304;DHT22;17112;48.636;10.152;2024-03-02T10:54:02;14.60;66.90
30304;DHT22;17112;48.636;10.152;2024-03-02T10:56:30;14.60;66.90
30304;DHT22;17112;48.636;10.152;2024-03-02T11:01:39;14.90;65.20
30304;DHT22;17112;48.636;10.152;2024-03-02T11:04:08;15.00;66.50
30304;DHT22;17112;48.636;10.152;2024-03-02T11:06:35;15.00;65.90
30304;DHT22;17112;48.636;10.152;2024-03-02T11:09:06;15.10;65.70
30304;DHT22;17112;48.636;10.152;2024-03-02T11:11:39;15.10;65.20
30304;DHT22;17112;48.636;10.152;2024-03-02T11:14:10;15.20;64.80
30304;DHT22;17112;48.636;10.152;2024-03-02T11:16:38;15.20;64.70
30304;DHT22;17112;48.636;10.152;2024-03-02T11:19:11;15.20;64.60
30304;DHT22;17112;48.636;10.152;2024-03-02T11:21:38;15.30;64.60
30304;DHT22;17112;48.636;10.152;2024-03-02T11:26:47;15.30;63.20
30304;DHT22;17112;48.636;10.152;2024-03-02T11:32:14;15.40;62.50
30304;DHT22;17112;48.636;10.152;2024-03-02T11:34:45;15.40;63.10
30304;DHT22;17112;48.636;10.152;2024-03-02T11:37:19;15.40;63.30
30304;DHT22;17112;48.636;10.152;2024-03-02T11:39:50;15.40;63.70
30304;DHT22;17112;48.636;10.152;2024-03-02T11:42:18;15.50;63.80
30304;DHT22;17112;48.636;10.152;2024-03-02T11:45:04;15.50;64.00
30304;DHT22;17112;48.636;10.152;2024-03-02T11:47:35;15.60;62.50
30304;DHT22;17112;48.636;10.152;2024-03-02T11:50:00;15.70;63.60
30304;DHT22;17112;48.636;10.152;2024-03-02T11:52:27;15.80;63.40
30304;DHT22;17112;48.636;10.152;2024-03-02T11:54:53;15.90;63.30
30304;DHT22;17112;48.636;10.152;2024-03-02T11:57:21;16.00;62.80
30304;DHT22;17112;48.636;10.152;2024-03-02T11:59:53;16.10;62.60
30304;DHT22;17112;48.636;10.152;2024-03-02T12:02:19;16.10;62.80
30304;DHT22;17112;48.636;10.152;2024-03-02T12:04:46;16.20;62.50
30304;DHT22;17112;48.636;10.152;2024-03-02T12:07:22;16.30;62.30
30304;DHT22;17112;48.636;10.152;2024-03-02T12:09:49;16.40;61.80
30304;DHT22;17112;48.636;10.152;2024-03-02T12:12:24;16.50;62.00
30304;DHT22;17112;48.636;10.152;2024-03-02T12:14:51;16.60;62.20
30304;DHT22;17112;48.636;10.152;2024-03-02T12:17:18;16.60;61.50
30304;DHT22;17112;48.636;10.152;2024-03-02T12:19:44;16.70;61.60
30304;DHT22;17112;48.636;10.152;2024-03-02T12:22:11;16.70;61.20
30304;DHT22;17112;48.636;10.152;2024-03-02T12:24:37;16.80;61.20
30304;DHT22;17112;48.636;10.152;2024-03-02T12:27:05;16.80;61.10
30304;DHT22;17112;48.636;10.152;2024-03-02T12:29:31;16.80;61.20
30304;DHT22;17112;48.636;10.152;2024-03-02T12:31:57;16.90;60.70
30304;DHT22;17112;48.636;10.152;2024-03-02T12:34:23;16.90;60.30
30304;DHT22;17112;48.636;10.152;2024-03-02T12:36:49;16.90;60.30
30304;DHT22;17112;48.636;10.152;2024-03-02T12:39:18;17.00;60.20
30304;DHT22;17112;48.636;10.152;2024-03-02T12:41:46;17.00;60.50
30304;DHT22;17112;48.636;10.152;2024-03-02T12:44:11;17.00;60.60
30304;DHT22;17112;48.636;10.152;2024-03-02T12:46:37;17.10;61.00
30304;DHT22;17112;48.636;10.152;2024-03-02T12:49:10;17.20;60.60
30304;DHT22;17112;48.636;10.152;2024-03-02T12:51:39;17.20;59.40
30304;DHT22;17112;48.636;10.152;2024-03-02T12:54:09;17.30;59.80
30304;DHT22;17112;48.636;10.152;2024-03-02T12:56:36;17.30;60.20
30304;DHT22;17112;48.636;10.152;2024-03-02T12:59:03;17.40;61.10
30304;DHT22;17112;48.636;10.152;2024-03-02T13:01:29;17.40;60.30
30304;DHT22;17112;48.636;10.152;2024-03-02T13:03:56;17.50;60.50
30304;DHT22;17112;48.636;10.152;2024-03-02T13:06:24;17.60;59.60
30304;DHT22;17112;48.636;10.152;2024-03-02T13:08:52;17.70;59.40
30304;DHT22;17112;48.636;10.152;2024-03-02T13:11:23;17.70;59.40
30304;DHT22;17112;48.636;10.152;2024-03-02T13:13:50;17.70;59.20
30304;DHT22;17112;48.636;10.152;2024-03-02T13:16:17;17.80;59.90
30304;DHT22;17112;48.636;10.152;2024-03-02T13:18:45;17.90;59.40
30304;DHT22;17112;48.636;10.152;2024-03-02T13:21:10;18.00;59.10
30304;DHT22;17112;48.636;10.152;2024-03-02T13:23:36;18.00;58.80
30304;DHT22;17112;48.636;10.152;2024-03-02T13:26:02;18.10;58.60
30304;DHT22;17112;48.636;10.152;2024-03-02T13:28:28;18.10;58.60
30304;DHT22;17112;48.636;10.152;2024-03-02T13:30:54;18.20;58.70
30304;DHT22;17112;48.636;10.152;2024-03-02T13:33:20;18.20;58.10
30304;DHT22;17112;48.636;10.152;2024-03-02T13:35:51;18.20;58.10
30304;DHT22;17112;48.636;10.152;2024-03-02T13:38:19;18.30;58.20
30304;DHT22;17112;48.636;10.152;2024-03-02T13:40:46;18.40;58.10
30304;DHT22;17112;48.636;10.152;2024-03-02T13:43:13;18.50;57.90
30304;DHT22;17112;48.636;10.152;2024-03-02T13:45:39;18.50;57.40
30304;DHT22;17112;48.636;10.152;2024-03-02T13:48:05;18.60;57.40
30304;DHT22;17112;48.636;10.152;2024-03-02T13:50:31;18.70;57.30
30304;DHT22;17112;48.636;10.152;2024-03-02T13:52:57;18.80;57.00
30304;DHT22;17112;48.636;10.152;2024-03-02T13:55:23;18.90;56.80
30304;DHT22;17112;48.636;10.152;2024-03-02T13:57:48;19.00;56.60
30304;DHT22;17112;48.636;10.152;2024-03-02T14:00:18;19.10;56.20
30304;DHT22;17112;48.636;10.152;2024-03-02T14:02:45;19.10;56.20
30304;DHT22;17112;48.636;10.152;2024-03-02T14:05:12;19.00;55.60
30304;DHT22;17112;48.636;10.152;2024-03-02T14:07:39;19.00;55.40
30304;DHT22;17112;48.636;10.152;2024-03-02T14:10:06;18.90;55.40
30304;DHT22;17112;48.636;10.152;2024-03-02T14:12:32;18.80;55.50
30304;DHT22;17112;48.636;10.152;2024-03-02T14:14:58;18.70;55.30
30304;DHT22;17112;48.636;10.152;2024-03-02T14:17:24;18.60;55.50
30304;DHT22;17112;48.636;10.152;2024-03-02T14:19:50;18.60;55.50
30304;DHT22;17112;48.636;10.152;2024-03-02T14:22:17;18.60;55.80
30304;DHT22;17112;48.636;10.152;2024-03-02T14:24:43;18.70;56.00
30304;DHT22;17112;48.636;10.152;2024-03-02T14:27:09;18.70;56.10
30304;DHT22;17112;48.636;10.152;2024-03-02T14:29:35;18.80;56.00
30304;DHT22;17112;48.636;10.152;2024-03-02T14:32:03;18.90;55.60
30304;DHT22;17112;48.636;10.152;2024-03-02T14:34:29;19.00;55.80
30304;DHT22;17112;48.636;10.152;2024-03-02T14:36:55;19.10;55.50
30304;DHT22;17112;48.636;10.152;2024-03-02T14:39:21;19.10;55.40
30304;DHT22;17112;48.636;10.152;2024-03-02T14:41:47;19.20;55.10
30304;DHT22;17112;48.636;10.152;2024-03-02T14:44:14;19.30;54.70
30304;DHT22;17112;48.636;10.152;2024-03-02T14:46:46;19.30;54.40
30304;DHT22;17112;48.636;10.152;2024-03-02T14:49:13;19.20;53.90
30304;DHT22;17112;48.636;10.152;2024-03-02T14:51:38;19.20;54.10
30304;DHT22;17112;48.636;10.152;2024-03-02T14:54:04;19.10;54.00
30304;DHT22;17112;48.636;10.152;2024-03-02T14:56:30;19.10;54.00
30304;DHT22;17112;48.636;10.152;2024-03-02T14:58:56;19.00;53.70
30304;DHT22;17112;48.636;10.152;2024-03-02T15:01:21;18.90;53.70
30304;DHT22;17112;48.636;10.152;2024-03-02T15:03:52;18.80;53.70
30304;DHT22;17112;48.636;10.152;2024-03-02T15:06:18;18.80;53.50
30304;DHT22;17112;48.636;10.152;2024-03-02T15:08:44;18.60;53.60
30304;DHT22;17112;48.636;10.152;2024-03-02T15:11:12;18.40;53.60
30304;DHT22;17112;48.636;10.152;2024-03-02T15:13:38;18.20;54.10
30304;DHT22;17112;48.636;10.152;2024-03-02T15:16:04;18.10;54.50
30304;DHT22;17112;48.636;10.152;2024-03-02T15:18:30;18.00;54.70
30304;DHT22;17112;48.636;10.152;2024-03-02T15:20:56;18.10;55.00
30304;DHT22;17112;48.636;10.152;2024-03-02T15:23:22;18.00;55.00
30304;DHT22;17112;48.636;10.152;2024-03-02T15:25:48;18.10;55.00
30304;DHT22;17112;48.636;10.152;2024-03-02T15:28:13;18.10;55.00
30304;DHT22;17112;48.636;10.152;2024-03-02T15:30:39;18.10;54.70
30304;DHT22;17112;48.636;10.152;2024-03-02T15:33:05;18.10;54.40
30304;DHT22;17112;48.636;10.152;2024-03-02T15:35:31;18.00;54.30
30304;DHT22;17112;48.636;10.152;2024-03-02T15:37:56;18.00;54.50
30304;DHT22;17112;48.636;10.152;2024-03-02T15:40:22;17.90;54.60